createdAt,value
2018-12-04T00:02:20.567Z,83.50
2018-12-04T00:04:52.086Z,83.80
2018-12-04T00:07:23.602Z,84.00
2018-12-04T00:09:54.884Z,84.20
2018-12-04T00:12:26.392Z,84.60
2018-12-04T00:14:58.109Z,85.10
2018-12-04T00:17:29.722Z,85.30
2018-12-04T00:20:01.397Z,85.50
2018-12-04T00:22:32.894Z,85.50
2018-12-04T00:25:04.434Z,85.60
2018-12-04T00:27:35.866Z,84.90
2018-12-04T00:30:09.573Z,84.60
2018-12-04T00:32:42.048Z,86.20
2018-12-04T00:35:17.828Z,87.70
2018-12-04T00:37:49.173Z,87.10
2018-12-04T00:40:20.905Z,87.90
2018-12-04T00:42:52.489Z,88.70
2018-12-04T00:45:24.125Z,89.30
2018-12-04T00:47:55.693Z,90.00
2018-12-04T00:50:27.663Z,90.20
2018-12-04T00:52:59.021Z,90.00
2018-12-04T00:55:33.872Z,89.80
2018-12-04T00:58:05.141Z,90.10
2018-12-04T01:00:36.496Z,90.10
2018-12-04T01:03:08.083Z,90.00
2018-12-04T01:05:39.881Z,89.40
2018-12-04T01:08:11.236Z,89.00
2018-12-04T01:10:43.210Z,88.90
2018-12-04T01:13:14.542Z,89.10
2018-12-04T01:15:46.079Z,89.20
2018-12-04T01:18:17.611Z,89.70
2018-12-04T01:20:49.426Z,89.80
2018-12-04T01:23:20.841Z,89.80
2018-12-04T01:25:52.958Z,89.60
2018-12-04T01:28:24.478Z,89.30
2018-12-04T01:30:56.106Z,89.20
2018-12-04T01:33:27.595Z,89.70
2018-12-04T01:35:59.233Z,90.00
2018-12-04T01:38:30.582Z,90.20
2018-12-04T01:41:02.226Z,90.20
2018-12-04T01:43:33.731Z,90.00
2018-12-04T01:46:05.246Z,90.00
2018-12-04T01:48:36.755Z,89.60
2018-12-04T01:51:09.837Z,89.30
2018-12-04T01:53:41.331Z,88.90
2018-12-04T01:56:13.936Z,88.60
2018-12-04T01:58:45.431Z,87.90
2018-12-04T02:01:17.130Z,87.20
2018-12-04T02:03:48.757Z,86.40
2018-12-04T02:06:20.494Z,85.30
2018-12-04T02:08:52.255Z,84.30
2018-12-04T02:11:23.608Z,83.40
2018-12-04T02:13:54.836Z,82.00
2018-12-04T02:16:26.357Z,81.50
2018-12-04T02:18:58.058Z,81.20
2018-12-04T02:21:29.470Z,81.20
2018-12-04T02:24:00.943Z,81.10
2018-12-04T02:26:32.303Z,80.70
2018-12-04T02:29:03.640Z,79.80
2018-12-04T02:31:35.226Z,79.60
2018-12-04T02:34:06.736Z,78.90
2018-12-04T02:36:38.198Z,78.40
2018-12-04T02:39:10.194Z,78.00
2018-12-04T02:41:41.503Z,77.70
2018-12-04T02:44:13.236Z,77.20
2018-12-04T02:46:44.641Z,77.50
2018-12-04T02:49:16.131Z,77.00
2018-12-04T02:51:48.051Z,77.00
2018-12-04T02:54:19.316Z,77.10
2018-12-04T02:56:51.259Z,77.40
2018-12-04T02:59:22.977Z,76.50
2018-12-04T03:01:54.225Z,76.80
2018-12-04T03:04:25.738Z,76.70
2018-12-04T03:06:57.370Z,76.90
2018-12-04T03:09:29.425Z,76.40
2018-12-04T03:12:00.870Z,74.60
2018-12-04T03:14:32.352Z,73.90
2018-12-04T03:17:03.877Z,73.00
2018-12-04T03:19:35.374Z,73.70
2018-12-04T03:22:06.756Z,74.00
2018-12-04T03:24:38.329Z,73.00
2018-12-04T03:27:10.027Z,72.80
2018-12-04T03:29:41.748Z,72.50
2018-12-04T03:32:13.547Z,72.10
2018-12-04T03:34:45.038Z,71.50
2018-12-04T03:37:16.447Z,71.70
2018-12-04T03:39:48.203Z,70.90
2018-12-04T03:42:19.958Z,70.80
2018-12-04T03:44:51.470Z,70.30
2018-12-04T03:47:23.502Z,70.80
2018-12-04T03:49:54.974Z,70.60
2018-12-04T03:52:26.505Z,71.40
2018-12-04T03:54:57.986Z,71.90
2018-12-04T03:57:29.533Z,70.50
2018-12-04T04:00:01.285Z,70.40
2018-12-04T04:02:32.992Z,71.30
2018-12-04T04:05:04.599Z,71.50
2018-12-04T04:07:35.938Z,71.20
2018-12-04T04:10:08.627Z,71.20
2018-12-04T04:12:40.145Z,71.70
2018-12-04T04:15:11.858Z,71.30
2018-12-04T04:17:43.597Z,71.70
2018-12-04T04:20:15.214Z,70.30
2018-12-04T04:22:46.561Z,68.70
2018-12-04T04:25:18.748Z,68.50
2018-12-04T04:27:50.089Z,68.80
2018-12-04T04:30:21.703Z,67.80
2018-12-04T04:32:53.910Z,67.70
2018-12-04T04:35:25.490Z,67.10
2018-12-04T04:37:56.990Z,65.90
2018-12-04T04:40:28.398Z,65.80
2018-12-04T04:42:59.918Z,65.30
2018-12-04T04:45:31.500Z,65.60
2018-12-04T04:48:02.838Z,65.70
2018-12-04T04:50:34.601Z,65.70
2018-12-04T04:53:05.922Z,65.80
2018-12-04T04:55:37.332Z,66.40
2018-12-04T04:58:08.916Z,65.80
2018-12-04T05:00:40.519Z,65.30
2018-12-04T05:03:12.196Z,64.10
2018-12-04T05:05:43.707Z,65.00
2018-12-04T05:08:15.023Z,62.90
2018-12-04T05:10:46.458Z,63.00
2018-12-04T05:13:18.152Z,63.40
2018-12-04T05:15:49.507Z,63.40
2018-12-04T05:18:21.114Z,63.20
2018-12-04T05:20:52.865Z,63.20
2018-12-04T05:23:24.463Z,63.70
2018-12-04T05:25:56.121Z,64.40
2018-12-04T05:28:28.314Z,64.30
2018-12-04T05:31:00.402Z,64.30
2018-12-04T05:33:31.794Z,63.10
2018-12-04T05:36:03.078Z,63.20
2018-12-04T05:38:34.541Z,63.80
2018-12-04T05:41:06.162Z,63.10
2018-12-04T05:43:37.874Z,63.30
2018-12-04T05:46:09.705Z,63.70
2018-12-04T05:48:41.063Z,63.40
2018-12-04T05:51:12.422Z,63.50
2018-12-04T05:53:43.743Z,63.50
2018-12-04T05:56:15.857Z,63.10
2018-12-04T05:58:47.321Z,63.00
2018-12-04T06:01:18.965Z,64.10
2018-12-04T06:03:50.340Z,63.50
2018-12-04T06:06:22.158Z,62.70
2018-12-04T06:08:53.725Z,62.50
2018-12-04T06:11:25.354Z,63.10
2018-12-04T06:13:56.817Z,59.00
2018-12-04T06:16:29.404Z,57.00
2018-12-04T06:19:01.256Z,56.60
2018-12-04T06:21:32.703Z,57.00
2018-12-04T06:24:15.101Z,57.80
2018-12-04T06:26:46.606Z,58.00
2018-12-04T06:29:18.301Z,58.60
2018-12-04T06:31:49.898Z,58.30
2018-12-04T06:34:21.505Z,58.40
2018-12-04T06:36:53.145Z,58.80
2018-12-04T06:39:24.925Z,58.90
2018-12-04T06:41:56.512Z,59.20
2018-12-04T06:44:28.231Z,58.70
2018-12-04T06:46:59.969Z,58.60
2018-12-04T06:49:31.581Z,59.00
2018-12-04T06:52:03.115Z,58.90
2018-12-04T06:54:34.611Z,58.00
2018-12-04T06:57:06.292Z,58.70
2018-12-04T06:59:37.885Z,58.90
2018-12-04T07:02:09.417Z,58.70
2018-12-04T07:04:41.018Z,59.40
2018-12-04T07:07:12.521Z,60.20
2018-12-04T07:09:43.917Z,60.30
2018-12-04T07:12:15.610Z,60.30
2018-12-04T07:14:47.299Z,59.80
2018-12-04T07:17:19.149Z,60.30
2018-12-04T07:19:50.755Z,60.60
2018-12-04T07:22:22.515Z,61.20
2018-12-04T07:24:54.228Z,62.00
2018-12-04T07:27:25.625Z,62.30
2018-12-04T07:29:57.018Z,62.50
2018-12-04T07:32:28.445Z,61.70
2018-12-04T07:35:00.018Z,60.90
2018-12-04T07:37:31.770Z,60.60
2018-12-04T07:40:04.098Z,60.20
2018-12-04T07:42:35.926Z,59.50
2018-12-04T07:45:07.953Z,58.40
2018-12-04T07:47:39.670Z,58.80
2018-12-04T07:50:11.128Z,59.70
2018-12-04T07:52:42.536Z,59.70
2018-12-04T07:55:14.792Z,59.50
2018-12-04T07:57:46.366Z,59.50
2018-12-04T08:00:18.366Z,59.40
2018-12-04T08:02:49.626Z,59.80
2018-12-04T08:05:20.967Z,59.90
2018-12-04T08:07:52.462Z,60.00
2018-12-04T08:10:24.130Z,60.80
2018-12-04T08:12:55.544Z,61.30
2018-12-04T08:15:27.085Z,62.50
2018-12-04T08:17:58.577Z,63.40
2018-12-04T08:20:30.089Z,64.60
2018-12-04T08:23:01.671Z,66.10
2018-12-04T08:25:33.077Z,66.40
2018-12-04T08:28:05.134Z,67.40
2018-12-04T08:30:36.816Z,69.40
2018-12-04T08:33:08.593Z,73.00
2018-12-04T08:35:40.223Z,75.00
2018-12-04T08:38:11.935Z,75.80
2018-12-04T08:40:43.657Z,76.60
2018-12-04T08:43:15.203Z,77.00
2018-12-04T08:45:46.754Z,77.50
2018-12-04T08:48:18.582Z,77.70
2018-12-04T08:50:49.923Z,75.80
2018-12-04T08:53:21.337Z,75.20
2018-12-04T08:55:52.777Z,74.30
2018-12-04T08:58:24.268Z,74.00
2018-12-04T09:00:55.613Z,73.80
2018-12-04T09:03:27.310Z,73.50
2018-12-04T09:05:58.996Z,73.30
2018-12-04T09:08:30.407Z,67.50
2018-12-04T09:11:01.914Z,65.50
2018-12-04T09:13:33.502Z,64.10
2018-12-04T09:16:04.766Z,65.10
2018-12-04T09:18:36.373Z,64.40
2018-12-04T09:21:07.908Z,64.10
2018-12-04T09:23:39.470Z,63.90
2018-12-04T09:26:11.146Z,64.40
2018-12-04T09:28:43.201Z,64.10
2018-12-04T09:31:14.776Z,65.50
2018-12-04T09:33:46.145Z,66.40
2018-12-04T09:36:17.564Z,66.70
2018-12-04T09:38:49.036Z,67.00
2018-12-04T09:41:20.410Z,67.30
2018-12-04T09:43:52.229Z,67.50
2018-12-04T09:46:23.688Z,67.30
2018-12-04T09:48:56.378Z,65.30
2018-12-04T09:51:28.340Z,65.30
2018-12-04T09:53:59.627Z,65.50
2018-12-04T09:56:30.975Z,63.00
2018-12-04T09:59:12.513Z,59.30
2018-12-04T10:01:44.307Z,58.60
2018-12-04T10:04:16.826Z,59.20
2018-12-04T10:06:48.432Z,59.60
2018-12-04T10:09:19.661Z,59.40
2018-12-04T10:11:51.126Z,58.80
2018-12-04T10:14:22.571Z,58.20
2018-12-04T10:16:53.730Z,58.60
2018-12-04T10:19:25.130Z,58.00
2018-12-04T10:21:56.529Z,58.10
2018-12-04T10:24:28.294Z,58.40
2018-12-04T10:27:00.138Z,59.40
2018-12-04T10:29:31.716Z,57.70
2018-12-04T10:37:52.901Z,58.30
2018-12-04T10:40:24.335Z,58.50
2018-12-04T10:42:55.705Z,59.00
2018-12-04T10:45:27.265Z,59.70
2018-12-04T10:47:58.850Z,59.90
2018-12-04T10:50:30.181Z,59.60
2018-12-04T10:53:02.038Z,59.20
2018-12-04T10:55:33.889Z,57.70
2018-12-04T10:58:05.456Z,57.10
2018-12-04T11:00:38.142Z,58.30
2018-12-04T11:03:13.638Z,58.30
2018-12-04T11:05:46.440Z,59.80
2018-12-04T11:08:18.071Z,58.70
2018-12-04T11:16:46.077Z,58.60
2018-12-04T11:19:17.488Z,57.30
2018-12-04T11:21:48.810Z,56.50
2018-12-04T11:24:20.424Z,57.00
2018-12-04T11:26:51.624Z,56.50
2018-12-04T11:29:23.206Z,56.70
2018-12-04T11:31:54.442Z,57.30
2018-12-04T11:34:25.826Z,56.90
2018-12-04T11:36:57.382Z,56.90
2018-12-04T11:39:28.985Z,57.80
2018-12-04T11:42:00.361Z,57.40
2018-12-04T11:44:31.697Z,57.80
2018-12-04T11:50:05.731Z,58.40
2018-12-04T11:52:38.260Z,58.60
2018-12-04T11:55:09.738Z,59.30
2018-12-04T11:57:41.015Z,60.20
2018-12-04T12:00:17.955Z,60.50
2018-12-04T12:02:49.510Z,61.60
2018-12-04T12:05:21.014Z,62.10
2018-12-04T12:07:52.808Z,60.90
2018-12-04T12:10:24.257Z,60.60
2018-12-04T12:12:55.723Z,59.30
2018-12-04T12:18:30.138Z,59.60
2018-12-04T12:21:01.463Z,59.00
2018-12-04T12:23:32.854Z,57.50
2018-12-04T12:26:04.370Z,56.70
2018-12-04T12:28:35.662Z,56.90
2018-12-04T12:31:06.917Z,56.10
2018-12-04T12:33:38.523Z,56.60
2018-12-04T12:36:09.999Z,56.60
2018-12-04T12:38:46.125Z,56.70
2018-12-04T12:44:20.610Z,56.70
2018-12-04T12:46:51.846Z,57.00
2018-12-04T12:49:23.236Z,56.20
2018-12-04T12:51:54.837Z,56.50
2018-12-04T12:54:26.887Z,56.70
2018-12-04T12:56:58.485Z,56.60
2018-12-04T12:59:29.881Z,56.50
2018-12-04T13:02:01.230Z,55.70
2018-12-04T13:04:32.550Z,54.60
2018-12-04T13:07:04.674Z,54.60
2018-12-04T13:09:37.313Z,54.90
2018-12-04T13:12:09.998Z,53.40
2018-12-04T13:14:41.602Z,53.90
2018-12-04T13:17:12.935Z,53.70
2018-12-04T13:19:45.284Z,53.50
2018-12-04T13:22:18.183Z,53.90
2018-12-04T13:24:49.606Z,53.70
2018-12-04T13:27:20.966Z,53.90
2018-12-04T13:29:52.447Z,53.90
2018-12-04T13:32:23.863Z,54.40
2018-12-04T13:34:55.069Z,53.80
2018-12-04T13:37:26.843Z,53.90
2018-12-04T13:39:58.654Z,54.20
2018-12-04T13:42:34.572Z,54.70
2018-12-04T13:45:06.172Z,55.30
2018-12-04T13:47:50.806Z,56.70
2018-12-04T13:50:22.124Z,57.80
2018-12-04T13:53:57.916Z,57.00
2018-12-04T13:56:33.197Z,58.00
2018-12-04T13:59:06.454Z,56.80
2018-12-04T14:01:38.365Z,56.40
2018-12-04T14:04:09.901Z,56.70
2018-12-04T14:06:42.712Z,57.80
2018-12-04T14:12:07.594Z,59.10
2018-12-04T14:14:39.053Z,56.90
2018-12-04T14:17:10.715Z,54.60
2018-12-04T14:19:41.956Z,54.20
2018-12-04T14:22:16.277Z,52.50
2018-12-04T14:24:45.335Z,52.20
2018-12-04T14:27:16.869Z,51.60
2018-12-04T14:29:48.586Z,50.80
2018-12-04T14:32:19.831Z,51.10
2018-12-04T14:34:51.533Z,51.60
2018-12-04T14:37:23.324Z,52.10
2018-12-04T14:39:54.831Z,51.70
2018-12-04T14:42:26.466Z,51.20
2018-12-04T14:44:58.086Z,51.70
2018-12-04T14:47:29.705Z,50.60
2018-12-04T14:50:20.741Z,50.80
2018-12-04T14:52:52.203Z,51.60
2018-12-04T14:58:17.348Z,50.60
2018-12-04T15:06:54.371Z,50.90
2018-12-04T15:09:26.052Z,51.40
2018-12-04T15:11:57.479Z,51.50
2018-12-04T15:14:29.281Z,50.40
2018-12-04T15:17:00.614Z,50.30
2018-12-04T15:19:32.055Z,49.80
2018-12-04T15:22:03.334Z,48.50
2018-12-04T15:24:34.605Z,49.00
2018-12-04T15:27:06.350Z,49.60
2018-12-04T15:29:37.656Z,50.10
2018-12-04T15:32:09.129Z,50.30
2018-12-04T15:34:40.665Z,49.90
2018-12-04T15:37:11.978Z,51.00
2018-12-04T15:39:43.466Z,50.70
2018-12-04T15:42:14.926Z,50.10
2018-12-04T15:44:46.557Z,49.70
2018-12-04T15:47:18.265Z,50.10
2018-12-04T15:49:49.439Z,50.40
2018-12-04T15:52:23.650Z,50.00
2018-12-04T15:54:55.006Z,49.80
2018-12-04T15:57:27.551Z,50.20
2018-12-04T15:59:58.998Z,50.30
2018-12-04T16:05:23.517Z,52.00
2018-12-04T16:07:54.704Z,52.40
2018-12-04T16:13:18.546Z,51.10
2018-12-04T16:15:49.887Z,50.70
2018-12-04T16:18:21.541Z,50.90
2018-12-04T16:20:53.274Z,51.10
2018-12-04T16:23:25.788Z,51.60
2018-12-04T16:25:57.818Z,50.70
2018-12-04T16:28:29.107Z,50.70
2018-12-04T16:31:00.829Z,51.40
2018-12-04T16:36:40.157Z,50.90
2018-12-04T16:39:12.291Z,50.90
2018-12-04T16:41:43.755Z,49.60
2018-12-04T16:44:15.022Z,49.10
2018-12-04T16:46:47.752Z,47.70
2018-12-04T16:49:19.354Z,47.90
2018-12-04T16:51:51.561Z,48.40
2018-12-04T16:57:16.852Z,49.30
2018-12-04T16:59:52.164Z,48.80
2018-12-04T17:02:23.701Z,47.60
2018-12-04T17:04:54.985Z,47.40
2018-12-04T17:07:26.362Z,46.80
2018-12-04T17:09:57.588Z,46.80
2018-12-04T17:13:03.942Z,46.60
2018-12-04T17:15:35.329Z,47.80
2018-12-04T17:18:07.381Z,47.60
2018-12-04T17:20:39.834Z,47.80
2018-12-04T17:23:11.226Z,47.00
2018-12-04T17:25:43.673Z,47.60
2018-12-04T17:28:15.205Z,47.40
2018-12-04T17:30:46.779Z,47.60
2018-12-04T17:33:18.594Z,46.70
2018-12-04T17:35:50.019Z,46.90
2018-12-04T17:38:21.574Z,46.00
2018-12-04T17:40:53.240Z,45.80
2018-12-04T17:43:25.659Z,46.10
2018-12-04T17:45:57.643Z,45.30
2018-12-04T17:48:44.091Z,45.80
2018-12-04T17:51:15.579Z,46.50
2018-12-04T17:53:47.357Z,46.70
2018-12-04T17:56:18.735Z,46.80
2018-12-04T17:58:51.363Z,47.80
2018-12-04T18:01:23.539Z,46.80
2018-12-04T18:03:54.965Z,47.60
2018-12-04T18:06:26.721Z,47.80
2018-12-04T18:08:59.325Z,47.60
2018-12-04T18:11:31.216Z,48.10
2018-12-04T18:14:02.817Z,48.10
2018-12-04T18:16:35.200Z,47.70
2018-12-04T18:19:07.131Z,47.00
2018-12-04T18:21:38.562Z,47.40
2018-12-04T18:24:09.957Z,47.80
2018-12-04T18:26:51.570Z,47.60
2018-12-04T18:29:23.034Z,48.00
2018-12-04T18:31:54.301Z,47.80
2018-12-04T18:34:25.693Z,48.20
2018-12-04T18:36:56.917Z,47.50
2018-12-04T18:39:28.461Z,48.00
2018-12-04T18:41:59.906Z,48.70
2018-12-04T18:44:31.503Z,48.60
2018-12-04T18:47:03.090Z,49.40
2018-12-04T18:49:34.631Z,48.80
2018-12-04T18:52:06.047Z,48.70
2018-12-04T18:54:37.619Z,49.20
2018-12-04T19:00:11.728Z,48.60
2018-12-04T19:02:43.683Z,49.60
2018-12-04T19:05:15.141Z,49.60
2018-12-04T19:07:46.454Z,49.00
2018-12-04T19:10:17.945Z,48.80
2018-12-04T19:12:49.417Z,49.20
2018-12-04T19:15:20.802Z,49.00
2018-12-04T19:17:52.287Z,49.60
2018-12-04T19:20:23.615Z,51.40
2018-12-04T19:22:55.082Z,51.70
2018-12-04T19:25:26.786Z,52.90
2018-12-04T19:27:58.294Z,52.90
2018-12-04T19:30:29.565Z,53.10
2018-12-04T19:36:03.567Z,53.50
2018-12-04T19:38:34.990Z,53.50
2018-12-04T19:41:07.506Z,53.30
2018-12-04T19:43:38.897Z,54.10
2018-12-04T19:46:18.902Z,54.50
2018-12-04T19:48:50.135Z,54.40
2018-12-04T19:51:21.389Z,54.60
2018-12-04T19:53:52.682Z,54.90
2018-12-04T19:56:24.080Z,54.50
2018-12-04T19:58:55.622Z,54.80
2018-12-04T20:01:26.923Z,55.60
2018-12-04T20:03:58.896Z,55.30
2018-12-04T20:06:30.420Z,55.50
2018-12-04T20:09:04.154Z,55.10
2018-12-04T20:11:35.790Z,55.20
2018-12-04T20:14:07.444Z,55.90
2018-12-04T20:16:38.916Z,56.20
2018-12-04T20:19:11.074Z,56.40
2018-12-04T20:21:43.469Z,56.00
2018-12-04T20:24:15.613Z,56.30
2018-12-04T20:26:47.534Z,56.80
2018-12-04T20:29:19.045Z,57.60
2018-12-04T20:31:50.442Z,57.30
2018-12-04T20:38:11.566Z,57.80
2018-12-04T20:43:54.433Z,58.40
2018-12-04T20:46:29.399Z,58.90
2018-12-04T20:49:04.317Z,59.30
2018-12-04T20:51:41.257Z,60.10
2018-12-04T20:54:16.232Z,59.80
2018-12-04T20:56:52.870Z,60.10
2018-12-04T20:59:31.738Z,60.40
2018-12-04T21:02:09.199Z,60.70
2018-12-04T21:04:43.889Z,60.90
2018-12-04T21:07:19.115Z,61.40
2018-12-04T21:09:51.756Z,62.10
2018-12-04T21:12:26.973Z,62.70
2018-12-04T21:15:18.705Z,63.50
2018-12-04T21:17:53.604Z,64.10
2018-12-04T21:32:43.688Z,65.30
2018-12-04T21:35:21.581Z,64.60
2018-12-04T21:38:02.599Z,65.00
2018-12-04T21:40:41.961Z,65.40
2018-12-04T21:43:21.897Z,65.70
2018-12-04T21:46:01.822Z,66.40
2018-12-04T21:48:38.718Z,66.90
2018-12-04T21:51:13.357Z,67.50
2018-12-04T21:57:07.562Z,68.70
2018-12-04T21:59:42.808Z,69.20
2018-12-04T22:02:15.423Z,69.30
2018-12-04T22:04:52.569Z,69.60
2018-12-04T22:07:29.901Z,68.90
2018-12-04T22:10:06.679Z,69.00
2018-12-04T22:12:43.606Z,69.10
2018-12-04T22:15:20.378Z,69.10
2018-12-04T22:17:57.325Z,69.50
2018-12-04T22:20:33.163Z,70.30
2018-12-04T22:23:06.446Z,69.40
2018-12-04T22:25:41.409Z,69.30
2018-12-04T22:28:16.306Z,69.80
2018-12-04T22:30:51.258Z,70.10
2018-12-04T22:36:28.742Z,70.70
2018-12-04T22:39:04.359Z,70.90
2018-12-04T22:41:40.996Z,71.40
2018-12-04T22:44:15.665Z,71.70
2018-12-04T22:46:50.186Z,72.20
2018-12-04T22:52:35.062Z,72.60
2018-12-04T22:55:11.374Z,72.00
2018-12-04T22:57:46.625Z,71.80
2018-12-04T23:00:33.282Z,71.50
2018-12-04T23:03:10.262Z,71.70
2018-12-04T23:05:46.246Z,71.90
2018-12-04T23:08:24.782Z,72.00
2018-12-04T23:10:59.677Z,71.50
2018-12-04T23:13:34.102Z,70.80
2018-12-04T23:16:08.809Z,71.00
2018-12-04T23:18:45.689Z,71.10
2018-12-04T23:21:21.932Z,71.40
2018-12-04T23:23:57.089Z,71.20
2018-12-04T23:26:33.759Z,71.10
2018-12-04T23:29:10.913Z,70.80
2018-12-04T23:31:47.889Z,70.40
2018-12-04T23:34:22.850Z,70.10
2018-12-04T23:36:58.432Z,69.90
2018-12-04T23:39:34.902Z,70.60
2018-12-04T23:42:16.870Z,71.20
2018-12-04T23:44:51.616Z,71.70
2018-12-04T23:47:27.375Z,72.10
2018-12-04T23:50:05.643Z,72.40
2018-12-04T23:52:40.885Z,72.70
2018-12-04T23:55:17.042Z,73.00
2018-12-04T23:57:52.740Z,73.50
